createdAt,value
2022-09-07T00:00:21.521Z,0.00
2022-09-07T00:01:21.481Z,0.00
2022-09-07T00:02:21.472Z,0.00
2022-09-07T00:03:21.530Z,0.00
2022-09-07T00:04:21.467Z,0.00
2022-09-07T00:05:21.453Z,0.00
2022-09-07T00:06:21.413Z,0.00
2022-09-07T00:07:21.413Z,0.00
2022-09-07T00:08:21.394Z,0.00
2022-09-07T00:09:21.378Z,0.00
2022-09-07T00:10:21.401Z,0.00
2022-09-07T00:11:21.345Z,0.00
2022-09-07T00:12:21.334Z,0.00
2022-09-07T00:13:21.324Z,0.00
2022-09-07T00:14:21.320Z,0.00
2022-09-07T00:15:21.315Z,0.00
2022-09-07T00:16:21.363Z,0.00
2022-09-07T00:17:21.290Z,0.00
2022-09-07T00:18:21.285Z,0.00
2022-09-07T00:19:21.236Z,0.00
2022-09-07T00:20:21.256Z,0.00
2022-09-07T00:21:21.216Z,0.00
2022-09-07T00:22:21.206Z,0.00
2022-09-07T00:23:21.189Z,0.00
2022-09-07T00:24:21.184Z,0.00
2022-09-07T00:25:21.195Z,0.00
2022-09-07T00:26:21.171Z,0.00
2022-09-07T00:27:21.129Z,0.00
2022-09-07T00:28:21.126Z,0.00
2022-09-07T00:29:21.115Z,0.00
2022-09-07T00:30:21.121Z,0.00
2022-09-07T00:31:21.134Z,0.00
2022-09-07T00:32:21.070Z,0.00
2022-09-07T00:33:21.063Z,0.00
2022-09-07T00:34:21.057Z,0.00
2022-09-07T00:35:21.051Z,0.00
2022-09-07T00:36:21.049Z,0.00
2022-09-07T00:37:20.998Z,0.00
2022-09-07T00:38:20.991Z,0.00
2022-09-07T00:39:20.971Z,0.00
2022-09-07T00:40:20.963Z,0.00
2022-09-07T00:41:21.002Z,0.00
2022-09-07T00:42:20.941Z,0.00
2022-09-07T00:43:20.921Z,0.00
2022-09-07T00:44:20.930Z,0.00
2022-09-07T00:45:20.892Z,0.00
2022-09-07T00:46:20.956Z,0.00
2022-09-07T00:47:20.870Z,0.00
2022-09-07T00:48:20.861Z,0.00
2022-09-07T00:49:20.841Z,0.00
2022-09-07T00:50:20.843Z,0.00
2022-09-07T00:51:20.833Z,0.00
2022-09-07T00:52:20.826Z,0.00
2022-09-07T00:53:20.783Z,0.00
2022-09-07T00:54:20.774Z,0.00
2022-09-07T00:55:20.767Z,0.00
2022-09-07T00:56:20.774Z,0.00
2022-09-07T00:57:20.734Z,0.00
2022-09-07T00:58:20.731Z,0.00
2022-09-07T00:59:20.704Z,0.00
2022-09-07T01:00:20.705Z,0.00
2022-09-07T01:01:20.777Z,0.00
2022-09-07T01:02:20.782Z,0.00
2022-09-07T01:03:20.655Z,0.00
2022-09-07T01:04:20.642Z,0.00
2022-09-07T01:05:20.626Z,0.00
2022-09-07T01:06:20.643Z,0.00
2022-09-07T01:07:20.604Z,0.00
2022-09-07T01:08:20.595Z,0.00
2022-09-07T01:09:20.573Z,0.00
2022-09-07T01:10:20.567Z,0.00
2022-09-07T01:11:20.567Z,0.00
2022-09-07T01:12:20.537Z,0.00
2022-09-07T01:13:20.535Z,0.00
2022-09-07T01:14:20.509Z,0.00
2022-09-07T01:15:20.517Z,0.00
2022-09-07T01:16:20.532Z,0.00
2022-09-07T01:17:20.469Z,0.00
2022-09-07T01:18:20.469Z,0.00
2022-09-07T01:19:20.438Z,0.00
2022-09-07T01:20:20.456Z,0.00
2022-09-07T01:21:20.419Z,0.00
2022-09-07T01:22:20.409Z,0.00
2022-09-07T01:23:20.388Z,0.00
2022-09-07T01:24:20.379Z,0.00
2022-09-07T01:25:20.398Z,0.00
2022-09-07T01:26:20.350Z,0.00
2022-09-07T01:27:20.329Z,0.00
2022-09-07T01:28:20.326Z,0.00
2022-09-07T01:29:20.307Z,0.00
2022-09-07T01:30:20.332Z,0.00
2022-09-07T01:31:20.396Z,0.00
2022-09-07T01:32:20.271Z,0.00
2022-09-07T01:33:20.283Z,0.00
2022-09-07T01:34:20.266Z,0.00
2022-09-07T01:35:20.258Z,0.00
2022-09-07T01:36:20.222Z,0.00
2022-09-07T01:37:20.202Z,0.00
2022-09-07T01:38:20.193Z,0.00
2022-09-07T01:39:20.173Z,0.00
2022-09-07T01:40:20.183Z,0.00
2022-09-07T01:41:20.174Z,0.00
2022-09-07T01:42:20.142Z,0.00
2022-09-07T01:43:20.123Z,0.00
2022-09-07T01:44:20.113Z,0.00
2022-09-07T01:45:20.118Z,0.00
2022-09-07T01:46:20.138Z,0.00
2022-09-07T01:47:20.074Z,0.00
2022-09-07T01:48:20.063Z,0.00
2022-09-07T01:49:20.061Z,0.00
2022-09-07T01:50:20.058Z,0.00
2022-09-07T01:51:20.016Z,0.00
2022-09-07T01:52:20.013Z,0.00
2022-09-07T01:53:19.988Z,0.00
2022-09-07T01:54:19.978Z,0.00
2022-09-07T01:55:20.019Z,0.00
2022-09-07T01:56:19.947Z,0.00
2022-09-07T01:57:19.939Z,0.00
2022-09-07T01:58:19.926Z,0.00
2022-09-07T01:59:19.907Z,0.00
2022-09-07T02:00:19.931Z,0.00
2022-09-07T02:01:19.930Z,0.00
2022-09-07T02:02:19.897Z,0.00
2022-09-07T02:03:19.859Z,0.00
2022-09-07T02:04:19.847Z,0.00
2022-09-07T02:05:19.859Z,0.00
2022-09-07T02:06:19.822Z,0.00
2022-09-07T02:07:19.818Z,0.00
2022-09-07T02:08:19.789Z,0.00
2022-09-07T02:09:19.769Z,0.00
2022-09-07T02:10:19.789Z,0.00
2022-09-07T02:11:19.750Z,0.00
2022-09-07T02:12:19.743Z,0.00
2022-09-07T02:13:19.828Z,0.00
2022-09-07T02:14:19.739Z,0.00
2022-09-07T02:15:19.747Z,0.00
2022-09-07T02:16:19.721Z,0.00
2022-09-07T02:17:19.671Z,0.00
2022-09-07T02:18:19.661Z,0.00
2022-09-07T02:19:19.671Z,0.00
2022-09-07T02:20:19.649Z,0.00
2022-09-07T02:21:19.614Z,0.00
2022-09-07T02:22:19.602Z,0.00
2022-09-07T02:23:19.592Z,0.00
2022-09-07T02:24:19.628Z,0.00
2022-09-07T02:25:19.563Z,0.00
2022-09-07T02:26:19.552Z,0.00
2022-09-07T02:27:19.553Z,0.00
2022-09-07T02:28:19.534Z,0.00
2022-09-07T02:29:19.533Z,0.00
2022-09-07T02:30:19.509Z,0.00
2022-09-07T02:31:19.511Z,0.00
2022-09-07T02:32:19.474Z,0.00
2022-09-07T02:33:19.474Z,0.00
2022-09-07T02:34:19.473Z,0.00
2022-09-07T02:35:19.499Z,0.00
2022-09-07T02:36:19.426Z,0.00
2022-09-07T02:37:19.425Z,0.00
2022-09-07T02:38:19.396Z,0.00
2022-09-07T02:39:19.403Z,0.00
2022-09-07T02:40:19.399Z,0.00
2022-09-07T02:41:19.354Z,0.00
2022-09-07T02:42:19.345Z,0.00
2022-09-07T02:43:19.326Z,0.00
2022-09-07T02:44:19.341Z,0.00
2022-09-07T02:45:19.304Z,0.00
2022-09-07T02:46:19.356Z,0.00
2022-09-07T02:47:19.277Z,0.00
2022-09-07T02:48:19.283Z,0.00
2022-09-07T02:49:19.267Z,0.00
2022-09-07T02:50:19.239Z,0.00
2022-09-07T02:51:19.220Z,0.00
2022-09-07T02:52:19.206Z,0.00
2022-09-07T02:53:19.198Z,0.00
2022-09-07T02:54:19.210Z,0.00
2022-09-07T02:55:19.169Z,0.00
2022-09-07T02:56:19.156Z,0.00
2022-09-07T02:57:19.140Z,0.00
2022-09-07T02:58:19.138Z,0.00
2022-09-07T02:59:19.146Z,0.00
2022-09-07T03:00:19.097Z,0.00
2022-09-07T03:01:19.183Z,0.00
2022-09-07T03:02:19.155Z,0.00
2022-09-07T03:03:19.071Z,0.00
2022-09-07T03:04:19.069Z,0.00
2022-09-07T03:05:19.041Z,0.00
2022-09-07T03:06:19.019Z,0.00
2022-09-07T03:07:19.012Z,0.00
2022-09-07T03:08:19.011Z,0.00
2022-09-07T03:09:18.981Z,0.00
2022-09-07T03:10:18.974Z,0.00
2022-09-07T03:11:18.971Z,0.00
2022-09-07T03:12:18.933Z,0.00
2022-09-07T03:13:18.953Z,0.00
2022-09-07T03:14:18.914Z,0.00
2022-09-07T03:15:18.903Z,0.00
2022-09-07T03:16:18.930Z,0.00
2022-09-07T03:17:18.882Z,0.00
2022-09-07T03:18:18.883Z,0.00
2022-09-07T03:19:18.858Z,0.00
2022-09-07T03:20:18.833Z,0.00
2022-09-07T03:21:18.824Z,0.00
2022-09-07T03:22:18.835Z,0.00
2022-09-07T03:23:18.825Z,0.00
2022-09-07T03:24:18.775Z,0.00
2022-09-07T03:25:18.772Z,0.00
2022-09-07T03:26:18.755Z,0.00
2022-09-07T03:27:18.743Z,0.00
2022-09-07T03:28:18.753Z,0.00
2022-09-07T03:29:18.716Z,0.00
2022-09-07T03:30:18.710Z,0.00
2022-09-07T03:31:18.748Z,0.00
2022-09-07T03:32:18.674Z,0.00
2022-09-07T03:33:18.686Z,0.00
2022-09-07T03:34:18.647Z,0.00
2022-09-07T03:35:18.647Z,0.00
2022-09-07T03:36:18.617Z,0.00
2022-09-07T03:37:18.612Z,0.00
2022-09-07T03:38:18.618Z,0.00
2022-09-07T03:39:18.578Z,0.00
2022-09-07T03:40:18.567Z,0.00
2022-09-07T03:41:18.558Z,0.00
2022-09-07T03:42:18.568Z,0.00
2022-09-07T03:43:18.549Z,0.00
2022-09-07T03:44:18.520Z,0.00
2022-09-07T03:45:18.513Z,0.00
2022-09-07T03:46:18.568Z,0.00
2022-09-07T03:47:18.477Z,0.00
2022-09-07T03:48:18.491Z,0.00
2022-09-07T03:49:18.449Z,0.00
2022-09-07T03:50:18.433Z,0.00
2022-09-07T03:51:18.426Z,0.00
2022-09-07T03:52:18.417Z,0.00
2022-09-07T03:53:18.437Z,0.00
2022-09-07T03:54:18.381Z,0.00
2022-09-07T03:55:18.369Z,0.00
2022-09-07T03:56:18.387Z,0.00
2022-09-07T03:57:18.370Z,0.00
2022-09-07T03:58:18.359Z,0.00
2022-09-07T03:59:18.314Z,0.00
2022-09-07T04:00:18.301Z,0.00
2022-09-07T04:01:18.353Z,0.00
2022-09-07T04:02:18.351Z,0.00
2022-09-07T04:03:18.315Z,0.00
2022-09-07T04:04:18.246Z,0.00
2022-09-07T04:05:18.243Z,0.00
2022-09-07T04:06:18.215Z,0.00
2022-09-07T04:07:18.214Z,0.00
2022-09-07T04:08:18.215Z,0.00
2022-09-07T04:09:18.195Z,0.00
2022-09-07T04:10:18.167Z,0.00
2022-09-07T04:11:18.154Z,0.00
2022-09-07T04:12:18.147Z,0.00
2022-09-07T04:13:18.175Z,0.00
2022-09-07T04:14:18.115Z,0.00
2022-09-07T04:15:18.109Z,0.00
2022-09-07T04:16:18.140Z,0.00
2022-09-07T04:17:18.085Z,0.00
2022-09-07T04:18:18.086Z,0.00
2022-09-07T04:19:18.049Z,0.00
2022-09-07T04:20:18.029Z,0.00
2022-09-07T04:21:18.029Z,0.00
2022-09-07T04:22:18.007Z,4.00
2022-09-07T04:23:18.024Z,4.00
2022-09-07T04:24:17.980Z,4.00
2022-09-07T04:25:17.975Z,4.00
2022-09-07T04:26:17.985Z,4.00
2022-09-07T04:27:17.947Z,4.00
2022-09-07T04:28:17.949Z,4.00
2022-09-07T04:29:17.936Z,0.00
2022-09-07T04:30:17.900Z,0.00
2022-09-07T04:31:17.938Z,0.00
2022-09-07T04:32:17.873Z,0.00
2022-09-07T04:33:17.901Z,0.00
2022-09-07T04:34:17.856Z,4.00
2022-09-07T04:35:17.841Z,4.00
2022-09-07T04:36:17.822Z,4.00
2022-09-07T04:37:17.835Z,4.00
2022-09-07T04:38:17.820Z,4.00
2022-09-07T04:39:17.788Z,8.00
2022-09-07T04:40:17.770Z,4.00
2022-09-07T04:41:17.763Z,8.00
2022-09-07T04:42:17.744Z,8.00
2022-09-07T04:43:17.752Z,8.00
2022-09-07T04:44:17.743Z,8.00
2022-09-07T04:45:17.712Z,12.00
2022-09-07T04:46:17.797Z,12.00
2022-09-07T04:47:17.688Z,16.00
2022-09-07T04:48:17.703Z,16.00
2022-09-07T04:49:17.652Z,20.00
2022-09-07T04:50:17.633Z,20.00
2022-09-07T04:51:17.625Z,20.00
2022-09-07T04:52:17.624Z,28.00
2022-09-07T04:53:17.624Z,28.00
2022-09-07T04:54:17.586Z,32.00
2022-09-07T04:55:17.576Z,36.00
2022-09-07T04:56:17.556Z,40.00
2022-09-07T04:57:17.565Z,44.00
2022-09-07T04:58:17.566Z,44.00
2022-09-07T04:59:17.523Z,48.00
2022-09-07T05:00:17.506Z,52.00
2022-09-07T05:01:17.642Z,56.00
2022-09-07T05:02:17.562Z,64.00
2022-09-07T05:03:17.496Z,64.00
2022-09-07T05:04:17.455Z,68.00
2022-09-07T05:05:17.446Z,72.00
2022-09-07T05:06:18.114Z,80.00
2022-09-07T05:07:17.460Z,84.00
2022-09-07T05:08:17.431Z,92.00
2022-09-07T05:09:17.388Z,96.00
2022-09-07T05:10:17.367Z,104.00
2022-09-07T05:11:17.358Z,112.00
2022-09-07T05:12:17.366Z,120.00
2022-09-07T05:13:17.359Z,128.00
2022-09-07T05:14:17.318Z,132.00
2022-09-07T05:15:17.306Z,140.00
2022-09-07T05:16:17.505Z,140.00
2022-09-07T05:17:17.316Z,148.00
2022-09-07T05:18:17.268Z,148.00
2022-09-07T05:19:17.264Z,156.00
2022-09-07T05:20:20.184Z,164.00
2022-09-07T05:21:17.237Z,164.00
2022-09-07T05:22:17.240Z,172.00
2022-09-07T05:23:17.201Z,180.00
2022-09-07T05:24:17.181Z,184.00
2022-09-07T05:25:17.252Z,196.00
2022-09-07T05:26:17.173Z,204.00
2022-09-07T05:27:17.155Z,216.00
2022-09-07T05:28:19.385Z,232.00
2022-09-07T05:31:19.051Z,276.00
2022-09-07T05:32:17.093Z,288.00
2022-09-07T05:33:17.103Z,304.00
2022-09-07T05:34:32.739Z,316.00
2022-09-07T05:35:18.044Z,320.00
2022-09-07T05:36:17.023Z,328.00
2022-09-07T05:37:17.014Z,336.00
2022-09-07T05:38:17.022Z,340.00
2022-09-07T05:39:17.003Z,356.00
2022-09-07T05:40:17.086Z,368.00
2022-09-07T05:41:16.972Z,388.00
2022-09-07T05:42:16.944Z,408.00
2022-09-07T05:43:16.972Z,448.00
2022-09-07T05:45:17.906Z,508.00
2022-09-07T05:46:16.961Z,548.00
2022-09-07T05:47:16.886Z,592.00
2022-09-07T05:48:16.894Z,624.00
2022-09-07T05:49:16.857Z,624.00
2022-09-07T05:50:16.855Z,600.00
2022-09-07T05:51:16.826Z,592.00
2022-09-07T05:52:16.809Z,580.00
2022-09-07T05:53:16.827Z,572.00
2022-09-07T05:54:16.792Z,552.00
2022-09-07T05:55:29.433Z,540.00
2022-09-07T05:56:17.768Z,532.00
2022-09-07T05:57:16.750Z,548.00
2022-09-07T05:58:16.758Z,576.00
2022-09-07T05:59:16.739Z,608.00
2022-09-07T06:00:16.711Z,636.00
2022-09-07T06:01:16.698Z,648.00
2022-09-07T06:02:16.832Z,652.00
2022-09-07T06:03:16.756Z,644.00
2022-09-07T06:04:16.664Z,648.00
2022-09-07T06:05:16.639Z,656.00
2022-09-07T06:06:16.622Z,664.00
2022-09-07T06:07:23.788Z,676.00
2022-09-07T06:08:17.636Z,676.00
2022-09-07T06:09:16.590Z,680.00
2022-09-07T06:11:17.574Z,700.00
2022-09-07T06:12:16.548Z,672.00
2022-09-07T06:13:16.560Z,640.00
2022-09-07T06:14:16.522Z,576.00
2022-09-07T06:15:16.511Z,544.00
2022-09-07T06:16:16.542Z,524.00
2022-09-07T06:17:16.486Z,508.00
2022-09-07T06:18:16.492Z,492.00
2022-09-07T06:19:16.463Z,492.00
2022-09-07T06:20:16.442Z,496.00
2022-09-07T06:21:16.433Z,508.00
2022-09-07T06:22:16.413Z,532.00
2022-09-07T06:23:16.434Z,556.00
2022-09-07T06:24:16.384Z,584.00
2022-09-07T06:25:16.373Z,620.00
2022-09-07T06:26:16.369Z,648.00
2022-09-07T06:27:16.394Z,668.00
2022-09-07T06:28:16.333Z,692.00
2022-09-07T06:29:16.325Z,720.00
2022-09-07T06:30:16.304Z,744.00
2022-09-07T06:31:16.325Z,776.00
2022-09-07T06:33:21.412Z,832.00
2022-09-07T06:34:16.254Z,868.00
2022-09-07T06:35:16.244Z,880.00
2022-09-07T06:36:16.226Z,892.00
2022-09-07T06:37:16.225Z,876.00
2022-09-07T06:38:16.233Z,916.00
2022-09-07T06:39:16.186Z,1040.00
2022-09-07T06:40:16.284Z,1140.00
2022-09-07T06:42:17.148Z,1320.00
2022-09-07T06:43:16.158Z,1324.00
2022-09-07T06:44:16.118Z,1280.00
2022-09-07T06:45:16.108Z,1260.00
2022-09-07T06:47:17.086Z,1356.00
2022-09-07T06:48:16.093Z,1480.00
2022-09-07T06:49:16.059Z,1672.00
2022-09-07T06:50:16.039Z,1808.00
2022-09-07T06:51:24.100Z,1792.00
2022-09-07T06:52:16.013Z,1664.00
2022-09-07T06:55:31.132Z,1676.00
2022-09-07T06:56:31.119Z,1712.00
2022-09-07T06:57:31.130Z,1816.00
2022-09-07T07:00:27.802Z,2228.00
2022-09-07T07:01:27.820Z,2308.00
2022-09-07T08:09:20.206Z,1552.00
2022-09-07T08:10:20.233Z,1652.00
2022-09-07T08:12:50.805Z,1960.00
2022-09-07T08:13:59.191Z,1924.00
2022-09-07T08:14:50.746Z,1816.00
2022-09-07T08:17:33.562Z,1584.00
2022-09-07T08:22:21.802Z,1596.00
2022-09-07T08:25:28.939Z,1632.00
2022-09-07T08:41:08.148Z,3320.00
2022-09-07T08:44:20.227Z,3620.00
2022-09-07T08:46:20.896Z,3096.00
2022-09-07T09:04:17.245Z,3788.00
2022-09-07T09:05:17.828Z,3760.00
2022-09-07T09:07:35.689Z,3872.00
2022-09-07T09:13:26.020Z,4580.00
